createdAt,value
2017-07-28T00:00:03.883Z,10.80
2017-07-28T00:00:08.113Z,10.05
2017-07-28T00:00:12.400Z,10.40
2017-07-28T00:00:16.651Z,11.20
2017-07-28T00:00:20.924Z,11.65
2017-07-28T00:00:25.180Z,11.77
2017-07-28T00:00:29.420Z,11.65
2017-07-28T00:00:33.652Z,11.80
2017-07-28T00:00:38.671Z,11.75
2017-07-28T00:00:42.915Z,11.37
2017-07-28T00:00:47.148Z,11.90
2017-07-28T00:00:51.392Z,12.15
2017-07-28T00:00:55.633Z,12.55
2017-07-28T00:00:59.864Z,12.80
2017-07-28T00:01:04.120Z,13.60
2017-07-28T00:01:08.380Z,13.45
2017-07-28T00:01:12.635Z,13.10
2017-07-28T00:01:16.893Z,12.50
2017-07-28T00:01:21.146Z,11.53
2017-07-28T00:01:25.376Z,11.45
2017-07-28T00:01:29.615Z,11.80
2017-07-28T00:01:33.844Z,11.70
2017-07-28T00:01:38.116Z,11.63
2017-07-28T00:01:42.372Z,11.65
2017-07-28T00:01:46.592Z,11.30
2017-07-28T00:01:50.876Z,11.57
2017-07-28T00:01:55.136Z,11.50
2017-07-28T00:01:59.400Z,11.30
2017-07-28T00:02:03.653Z,10.60
2017-07-28T00:02:07.896Z,10.50
2017-07-28T00:02:12.136Z,9.80
2017-07-28T00:02:16.376Z,9.70
2017-07-28T00:02:21.372Z,9.85
2017-07-28T00:02:25.604Z,9.97
2017-07-28T00:02:29.849Z,10.33
2017-07-28T00:02:34.087Z,10.75
2017-07-28T00:02:39.085Z,10.65
2017-07-28T00:02:43.331Z,10.90
2017-07-28T00:02:47.561Z,11.15
2017-07-28T00:02:51.808Z,10.23
2017-07-28T00:02:56.834Z,11.15
2017-07-28T00:03:01.854Z,12.47
2017-07-28T00:03:06.103Z,12.67
2017-07-28T00:03:10.416Z,12.60
2017-07-28T00:03:14.646Z,12.57
2017-07-28T00:03:18.897Z,12.95
2017-07-28T00:03:23.133Z,13.10
2017-07-28T00:03:27.363Z,13.20
2017-07-28T00:03:31.612Z,13.03
2017-07-28T00:03:35.850Z,13.10
2017-07-28T00:03:40.113Z,12.60
2017-07-28T00:03:44.365Z,11.85
2017-07-28T00:03:48.619Z,11.83
2017-07-28T00:03:52.866Z,12.45
2017-07-28T00:03:57.131Z,11.10
2017-07-28T00:04:01.385Z,10.00
2017-07-28T00:04:05.633Z,10.05
2017-07-28T00:04:09.861Z,10.45
2017-07-28T00:04:14.110Z,10.35
2017-07-28T00:04:18.357Z,9.97
2017-07-28T00:04:23.375Z,9.35
2017-07-28T00:04:28.385Z,8.67
2017-07-28T00:04:33.400Z,8.73
2017-07-28T00:04:38.421Z,8.67
2017-07-28T00:04:42.666Z,9.03
2017-07-28T00:04:46.901Z,9.30
2017-07-28T00:04:51.172Z,8.60
2017-07-28T00:04:55.424Z,8.90
2017-07-28T00:05:00.425Z,9.60
2017-07-28T00:05:04.683Z,10.33
2017-07-28T00:05:08.917Z,11.25
2017-07-28T00:05:13.182Z,11.20
2017-07-28T00:05:17.427Z,11.40
2017-07-28T00:05:22.440Z,11.90
2017-07-28T00:05:26.693Z,12.90
2017-07-28T00:05:30.948Z,13.05
2017-07-28T00:05:35.957Z,13.10
2017-07-28T00:05:40.986Z,13.93
2017-07-28T00:05:45.257Z,13.57
2017-07-28T00:05:49.506Z,13.35
2017-07-28T00:05:53.735Z,13.55
2017-07-28T00:05:57.974Z,13.57
2017-07-28T00:06:02.231Z,12.70
2017-07-28T00:06:06.510Z,11.90
2017-07-28T00:06:10.741Z,11.45
2017-07-28T00:06:15.001Z,11.73
2017-07-28T00:06:19.236Z,11.25
2017-07-28T00:06:24.262Z,10.75
2017-07-28T00:06:28.500Z,10.10
2017-07-28T00:06:32.745Z,9.35
2017-07-28T00:06:36.994Z,8.43
2017-07-28T00:06:41.213Z,8.10
2017-07-28T00:06:46.210Z,8.35
2017-07-28T00:06:50.461Z,8.67
2017-07-28T00:06:54.703Z,8.55
2017-07-28T00:06:58.949Z,8.40
2017-07-28T00:07:03.173Z,8.80
2017-07-28T00:07:07.405Z,9.40
2017-07-28T00:07:11.682Z,10.00
2017-07-28T00:07:15.923Z,10.13
2017-07-28T00:07:20.171Z,10.50
2017-07-28T00:07:24.415Z,10.40
2017-07-28T00:07:28.674Z,11.10
2017-07-28T00:07:32.916Z,11.70
2017-07-28T00:07:37.940Z,12.25
2017-07-28T00:07:42.955Z,12.17
2017-07-28T00:07:47.211Z,12.00
2017-07-28T00:07:51.440Z,12.80
2017-07-28T00:07:55.685Z,12.60
2017-07-28T00:07:59.977Z,12.90
2017-07-28T00:08:04.965Z,13.45
2017-07-28T00:08:10.001Z,12.95
2017-07-28T00:08:14.236Z,12.90
2017-07-28T00:08:18.484Z,12.63
2017-07-28T00:08:23.515Z,13.30
2017-07-28T00:08:28.528Z,14.20
2017-07-28T00:08:32.761Z,14.23
2017-07-28T00:08:36.998Z,14.05
2017-07-28T00:08:41.251Z,14.40
2017-07-28T00:08:45.485Z,14.43
2017-07-28T00:08:49.734Z,13.80
2017-07-28T00:08:54.736Z,13.40
2017-07-28T00:08:58.986Z,12.83
2017-07-28T00:09:03.220Z,12.40
2017-07-28T00:09:07.556Z,11.37
2017-07-28T00:09:11.773Z,11.20
2017-07-28T00:09:16.037Z,11.60
2017-07-28T00:09:21.059Z,12.23
2017-07-28T00:09:25.311Z,10.90
2017-07-28T00:09:29.574Z,10.25
2017-07-28T00:09:33.842Z,10.25
2017-07-28T00:09:38.090Z,10.80
2017-07-28T00:09:42.373Z,11.43
2017-07-28T00:09:46.600Z,12.15
2017-07-28T00:09:50.847Z,12.10
2017-07-28T00:09:55.087Z,12.27
2017-07-28T00:09:59.349Z,12.65
2017-07-28T00:10:03.622Z,12.60
2017-07-28T00:10:07.833Z,12.70
2017-07-28T00:10:12.101Z,12.80
2017-07-28T00:10:16.354Z,12.45
2017-07-28T00:10:20.587Z,11.85
2017-07-28T00:10:24.839Z,12.00
2017-07-28T00:10:29.102Z,11.77
2017-07-28T00:10:33.665Z,11.20
2017-07-28T00:10:38.682Z,10.43
2017-07-28T00:10:42.909Z,9.90
2017-07-28T00:10:47.152Z,9.40
2017-07-28T00:10:51.388Z,9.40
2017-07-28T00:10:56.389Z,9.30
2017-07-28T00:11:00.640Z,9.33
2017-07-28T00:11:05.633Z,10.23
2017-07-28T00:11:10.640Z,10.40
2017-07-28T00:11:15.643Z,13.40
2017-07-28T00:11:19.898Z,13.43
2017-07-28T00:11:24.128Z,13.65
2017-07-28T00:11:28.378Z,13.80
2017-07-28T00:11:32.623Z,13.80
2017-07-28T00:11:36.887Z,13.97
2017-07-28T00:11:41.122Z,13.70
2017-07-28T00:11:45.356Z,13.55
2017-07-28T00:11:50.378Z,13.30
2017-07-28T00:11:55.377Z,13.90
2017-07-28T00:11:59.658Z,14.65
2017-07-28T00:12:03.907Z,14.50
2017-07-28T00:12:08.918Z,15.05
2017-07-28T00:12:13.931Z,12.67
2017-07-28T00:12:18.928Z,11.40
2017-07-28T00:12:23.188Z,10.93
2017-07-28T00:12:27.413Z,11.10
2017-07-28T00:12:31.660Z,11.50
2017-07-28T00:12:35.908Z,11.55
2017-07-28T00:12:40.147Z,11.30
2017-07-28T00:12:45.136Z,11.35
2017-07-28T00:12:49.393Z,11.50
2017-07-28T00:12:53.646Z,11.77
2017-07-28T00:12:57.894Z,11.10
2017-07-28T00:13:02.143Z,11.05
2017-07-28T00:13:06.395Z,11.10
2017-07-28T00:13:10.666Z,10.60
2017-07-28T00:13:15.685Z,10.50
2017-07-28T00:13:19.957Z,10.60
2017-07-28T00:13:24.211Z,11.00
2017-07-28T00:13:28.467Z,10.47
2017-07-28T00:13:32.706Z,10.65
2017-07-28T00:13:36.950Z,10.70
2017-07-28T00:13:41.189Z,10.55
2017-07-28T00:13:46.516Z,11.23
2017-07-28T00:13:51.218Z,10.77
2017-07-28T00:13:55.476Z,10.93
2017-07-28T00:13:59.727Z,11.05
2017-07-28T00:14:03.983Z,10.35
2017-07-28T00:14:08.221Z,10.00
2017-07-28T00:14:13.228Z,10.00
2017-07-28T00:14:17.531Z,10.10
2017-07-28T00:14:21.785Z,12.05
2017-07-28T00:14:26.013Z,12.70
2017-07-28T00:14:30.275Z,12.87
2017-07-28T00:14:34.529Z,12.65
2017-07-28T00:14:38.756Z,12.95
2017-07-28T00:14:43.001Z,13.50
2017-07-28T00:14:47.269Z,12.70
2017-07-28T00:14:51.493Z,12.90
2017-07-28T00:14:55.751Z,12.80
2017-07-28T00:15:00.760Z,12.53
2017-07-28T00:15:05.784Z,12.90
2017-07-28T00:15:10.777Z,13.30
2017-07-28T00:15:15.038Z,13.47
2017-07-28T00:15:19.286Z,13.45
2017-07-28T00:15:23.526Z,11.45
2017-07-28T00:15:27.778Z,10.95
2017-07-28T00:15:32.017Z,11.13
2017-07-28T00:15:36.261Z,11.40
2017-07-28T00:15:40.522Z,11.45
2017-07-28T00:15:44.770Z,12.40
2017-07-28T00:15:49.028Z,12.17
2017-07-28T00:15:53.258Z,11.90
2017-07-28T00:15:57.498Z,11.60
2017-07-28T00:16:01.759Z,11.13
2017-07-28T00:16:06.001Z,11.35
2017-07-28T00:16:11.008Z,11.45
2017-07-28T00:16:16.039Z,12.03
2017-07-28T00:16:21.036Z,11.57
2017-07-28T00:16:26.036Z,11.97
2017-07-28T00:16:30.292Z,12.43
2017-07-28T00:16:34.517Z,12.25
2017-07-28T00:16:38.780Z,12.10
2017-07-28T00:16:43.800Z,11.20
2017-07-28T00:16:48.048Z,11.20
2017-07-28T00:16:52.278Z,10.80
2017-07-28T00:16:57.321Z,10.95
2017-07-28T00:17:02.348Z,11.20
2017-07-28T00:17:06.595Z,10.53
2017-07-28T00:17:10.830Z,10.20
2017-07-28T00:17:15.839Z,9.75
2017-07-28T00:17:20.087Z,10.87
2017-07-28T00:17:24.323Z,11.15
2017-07-28T00:17:28.577Z,10.80
2017-07-28T00:17:32.819Z,10.90
2017-07-28T00:17:37.068Z,10.70
2017-07-28T00:17:41.316Z,10.50
2017-07-28T00:17:45.540Z,10.90
2017-07-28T00:17:50.571Z,11.55
2017-07-28T00:17:55.573Z,11.50
2017-07-28T00:18:00.583Z,11.50
2017-07-28T00:18:04.857Z,11.50
2017-07-28T00:18:09.110Z,12.00
2017-07-28T00:18:13.384Z,11.93
2017-07-28T00:18:18.392Z,11.10
2017-07-28T00:18:22.643Z,10.27
2017-07-28T00:18:26.888Z,9.75
2017-07-28T00:18:31.142Z,9.60
2017-07-28T00:18:35.393Z,10.60
2017-07-28T00:18:39.673Z,11.00
2017-07-28T00:18:43.896Z,11.05
2017-07-28T00:18:48.159Z,11.37
2017-07-28T00:18:52.431Z,12.05
2017-07-28T00:18:56.672Z,11.85
2017-07-28T00:19:00.919Z,11.85
2017-07-28T00:19:05.182Z,13.33
2017-07-28T00:19:09.416Z,13.10
2017-07-28T00:19:14.421Z,13.05
2017-07-28T00:19:18.658Z,13.27
2017-07-28T00:19:22.915Z,13.80
2017-07-28T00:19:27.173Z,14.73
2017-07-28T00:19:31.452Z,15.60
2017-07-28T00:19:35.700Z,14.80
2017-07-28T00:19:39.959Z,14.83
2017-07-28T00:19:44.205Z,14.80
2017-07-28T00:19:48.459Z,15.20
2017-07-28T00:19:52.690Z,15.20
2017-07-28T00:19:56.941Z,15.30
2017-07-28T00:20:01.184Z,15.35
2017-07-28T00:20:05.438Z,13.95
2017-07-28T00:20:10.473Z,13.90
2017-07-28T00:20:14.738Z,14.23
2017-07-28T00:20:19.012Z,14.90
2017-07-28T00:20:23.258Z,14.90
2017-07-28T00:20:28.261Z,14.65
2017-07-28T00:20:32.919Z,13.70
2017-07-28T00:20:37.130Z,13.30
2017-07-28T00:20:41.384Z,12.90
2017-07-28T00:20:46.391Z,12.30
2017-07-28T00:20:51.376Z,10.77
2017-07-28T00:20:55.658Z,10.23
2017-07-28T00:20:59.899Z,10.20
2017-07-28T00:21:04.146Z,10.50
2017-07-28T00:21:08.410Z,10.70
2017-07-28T00:21:12.640Z,11.30
2017-07-28T00:21:16.905Z,12.00
2017-07-28T00:21:21.133Z,11.20
2017-07-28T00:21:25.384Z,10.55
2017-07-28T00:21:29.638Z,10.77
2017-07-28T00:21:33.872Z,10.85
2017-07-28T00:21:38.104Z,11.00
2017-07-28T00:21:42.361Z,10.80
2017-07-28T00:21:46.614Z,11.23
2017-07-28T00:21:51.719Z,11.95
2017-07-28T00:21:55.925Z,12.40
2017-07-28T00:22:00.178Z,12.05
2017-07-28T00:22:04.433Z,11.87
2017-07-28T00:22:09.438Z,11.95
2017-07-28T00:22:13.691Z,11.43
2017-07-28T00:22:17.926Z,10.70
2017-07-28T00:22:22.161Z,10.85
2017-07-28T00:22:26.393Z,10.77
2017-07-28T00:22:30.644Z,10.25
2017-07-28T00:22:35.654Z,10.45
2017-07-28T00:22:40.660Z,10.80
2017-07-28T00:22:44.888Z,10.80
2017-07-28T00:22:49.234Z,10.50
2017-07-28T00:22:53.467Z,11.33
2017-07-28T00:22:57.717Z,11.40
2017-07-28T00:23:01.954Z,11.50
2017-07-28T00:23:06.202Z,11.07
2017-07-28T00:23:10.471Z,10.90
2017-07-28T00:23:14.726Z,10.35
2017-07-28T00:23:18.975Z,10.10
2017-07-28T00:23:23.213Z,10.07
2017-07-28T00:23:27.456Z,10.70
2017-07-28T00:23:31.692Z,11.10
2017-07-28T00:23:35.947Z,10.95
2017-07-28T00:23:40.198Z,10.40
2017-07-28T00:23:44.428Z,10.60
2017-07-28T00:23:48.659Z,11.35
2017-07-28T00:23:52.889Z,10.55
2017-07-28T00:23:57.138Z,10.40
2017-07-28T00:24:01.383Z,10.50
2017-07-28T00:24:06.369Z,10.90
2017-07-28T00:24:10.730Z,11.27
2017-07-28T00:24:14.962Z,12.23
2017-07-28T00:24:19.241Z,13.05
2017-07-28T00:24:23.497Z,12.95
2017-07-28T00:24:28.506Z,13.25
2017-07-28T00:24:32.746Z,12.83
2017-07-28T00:24:37.004Z,13.00
2017-07-28T00:24:41.252Z,13.65
2017-07-28T00:24:45.495Z,13.20
2017-07-28T00:24:49.743Z,12.45
2017-07-28T00:24:53.996Z,12.47
2017-07-28T00:24:58.236Z,12.55
2017-07-28T00:25:02.478Z,13.80
2017-07-28T00:25:06.704Z,14.35
2017-07-28T00:25:10.968Z,13.73
2017-07-28T00:25:15.211Z,13.30
2017-07-28T00:25:20.222Z,12.90
2017-07-28T00:25:24.474Z,13.03
2017-07-28T00:25:28.714Z,12.60
2017-07-28T00:25:32.951Z,12.75
2017-07-28T00:25:37.209Z,13.45
2017-07-28T00:25:41.432Z,13.30
2017-07-28T00:25:46.441Z,13.30
2017-07-28T00:25:50.688Z,13.00
2017-07-28T00:25:54.942Z,12.80
2017-07-28T00:25:59.188Z,12.75
2017-07-28T00:26:03.417Z,11.45
2017-07-28T00:26:07.660Z,10.80
2017-07-28T00:26:12.664Z,10.70
2017-07-28T00:26:17.695Z,11.30
2017-07-28T00:26:21.986Z,11.13
2017-07-28T00:26:26.981Z,11.10
2017-07-28T00:26:31.218Z,11.00
2017-07-28T00:26:35.471Z,10.07
2017-07-28T00:26:39.719Z,9.60
2017-07-28T00:26:44.712Z,9.25
2017-07-28T00:26:48.959Z,9.20
2017-07-28T00:26:53.180Z,9.35
2017-07-28T00:26:57.453Z,10.70
2017-07-28T00:27:01.704Z,11.70
2017-07-28T00:27:05.965Z,12.10
2017-07-28T00:27:10.200Z,12.25
2017-07-28T00:27:14.458Z,11.70
2017-07-28T00:27:18.702Z,11.60
2017-07-28T00:27:22.967Z,12.00
2017-07-28T00:27:27.242Z,12.55
2017-07-28T00:27:31.496Z,12.70
2017-07-28T00:27:35.729Z,13.40
2017-07-28T00:27:39.970Z,13.50
2017-07-28T00:27:44.204Z,13.77
2017-07-28T00:27:48.459Z,13.50
2017-07-28T00:27:52.739Z,13.50
2017-07-28T00:27:57.762Z,12.45
2017-07-28T00:28:02.018Z,11.00
2017-07-28T00:28:06.263Z,10.70
2017-07-28T00:28:10.544Z,11.25
2017-07-28T00:28:15.569Z,11.70
2017-07-28T00:28:20.586Z,11.80
2017-07-28T00:28:25.582Z,11.80
2017-07-28T00:28:29.808Z,11.83
2017-07-28T00:28:34.071Z,12.27
2017-07-28T00:28:38.312Z,13.20
2017-07-28T00:28:42.566Z,14.35
2017-07-28T00:28:46.830Z,14.70
2017-07-28T00:28:51.081Z,14.67
2017-07-28T00:28:55.316Z,14.45
2017-07-28T00:28:59.566Z,15.50
2017-07-28T00:29:03.823Z,17.30
2017-07-28T00:29:08.065Z,17.30
2017-07-28T00:29:12.360Z,16.50
2017-07-28T00:29:16.592Z,16.40
2017-07-28T00:29:21.604Z,16.30
2017-07-28T00:29:25.836Z,15.87
2017-07-28T00:29:30.081Z,16.00
2017-07-28T00:29:34.312Z,15.55
2017-07-28T00:29:39.331Z,14.50
2017-07-28T00:29:44.362Z,13.23
2017-07-28T00:29:49.373Z,13.27
2017-07-28T00:29:54.399Z,13.47
2017-07-28T00:29:59.396Z,12.70
2017-07-28T00:30:04.431Z,10.37
2017-07-28T00:30:08.687Z,9.50
2017-07-28T00:30:12.938Z,9.30
2017-07-28T00:30:17.178Z,9.25
2017-07-28T00:30:21.410Z,9.00
2017-07-28T00:30:25.629Z,8.73
2017-07-28T00:30:30.641Z,8.80
2017-07-28T00:30:35.644Z,9.13
2017-07-28T00:30:40.035Z,9.00
2017-07-28T00:30:44.281Z,9.10
2017-07-28T00:30:48.540Z,9.70
2017-07-28T00:30:52.793Z,9.90
2017-07-28T00:30:57.045Z,10.65
2017-07-28T00:31:01.290Z,10.85
2017-07-28T00:31:05.524Z,10.97
2017-07-28T00:31:09.768Z,11.25
2017-07-28T00:31:14.022Z,12.00
2017-07-28T00:31:18.275Z,12.10
2017-07-28T00:31:22.562Z,11.90
2017-07-28T00:31:26.817Z,12.85
2017-07-28T00:31:31.060Z,12.75
2017-07-28T00:31:35.303Z,12.10
2017-07-28T00:31:39.548Z,12.40
2017-07-28T00:31:44.598Z,12.75
2017-07-28T00:31:48.852Z,12.40
2017-07-28T00:31:53.093Z,12.30
2017-07-28T00:31:57.322Z,11.50
2017-07-28T00:32:01.569Z,11.70
2017-07-28T00:32:05.837Z,12.05
2017-07-28T00:32:10.068Z,12.25
2017-07-28T00:32:14.344Z,12.20
2017-07-28T00:32:19.694Z,12.45
2017-07-28T00:32:23.944Z,12.60
2017-07-28T00:32:28.181Z,12.00
2017-07-28T00:32:32.429Z,12.50
2017-07-28T00:32:36.683Z,12.50
2017-07-28T00:32:40.932Z,12.35
2017-07-28T00:32:45.188Z,11.30
2017-07-28T00:32:49.436Z,11.10
2017-07-28T00:32:53.712Z,10.90
2017-07-28T00:32:58.727Z,11.40
2017-07-28T00:33:03.744Z,12.27
2017-07-28T00:33:08.748Z,12.20
2017-07-28T00:33:13.767Z,12.05
2017-07-28T00:33:18.001Z,11.57
2017-07-28T00:33:22.242Z,11.85
2017-07-28T00:33:26.480Z,11.55
2017-07-28T00:33:31.559Z,11.55
2017-07-28T00:33:35.786Z,11.57
2017-07-28T00:33:40.032Z,12.77
2017-07-28T00:33:44.264Z,13.30
2017-07-28T00:33:48.509Z,15.00
2017-07-28T00:33:53.514Z,15.40
2017-07-28T00:33:58.527Z,14.83
2017-07-28T00:34:03.546Z,13.43
2017-07-28T00:34:08.559Z,13.20
2017-07-28T00:34:12.798Z,12.97
2017-07-28T00:34:17.071Z,13.00
2017-07-28T00:34:21.306Z,13.00
2017-07-28T00:34:25.560Z,13.05
2017-07-28T00:34:29.816Z,12.70
2017-07-28T00:34:34.058Z,12.70
2017-07-28T00:34:38.304Z,13.05
2017-07-28T00:34:42.547Z,13.00
2017-07-28T00:34:46.805Z,11.87
2017-07-28T00:34:51.066Z,11.05
2017-07-28T00:34:56.093Z,11.30
2017-07-28T00:35:01.113Z,11.97
2017-07-28T00:35:06.128Z,12.03
2017-07-28T00:35:11.150Z,12.13
2017-07-28T00:35:16.179Z,11.90
2017-07-28T00:35:21.154Z,11.77
2017-07-28T00:35:25.415Z,12.90
2017-07-28T00:35:29.652Z,14.33
2017-07-28T00:35:33.916Z,14.55
2017-07-28T00:35:38.148Z,13.15
2017-07-28T00:35:42.411Z,12.95
2017-07-28T00:35:46.666Z,13.13
2017-07-28T00:35:50.912Z,12.95
2017-07-28T00:35:55.170Z,12.90
2017-07-28T00:35:59.395Z,12.80
2017-07-28T00:36:03.646Z,12.60
2017-07-28T00:36:07.887Z,12.35
2017-07-28T00:36:12.900Z,12.90
2017-07-28T00:36:17.901Z,13.57
2017-07-28T00:36:22.901Z,13.30
2017-07-28T00:36:27.165Z,11.17
2017-07-28T00:36:31.428Z,10.23
2017-07-28T00:36:35.684Z,9.80
2017-07-28T00:36:39.912Z,10.25
2017-07-28T00:36:44.159Z,10.80
2017-07-28T00:36:48.408Z,11.00
2017-07-28T00:36:52.655Z,11.05
2017-07-28T00:36:56.928Z,10.70
2017-07-28T00:37:01.161Z,11.00
2017-07-28T00:37:05.435Z,11.30
2017-07-28T00:37:10.449Z,10.90
2017-07-28T00:37:15.472Z,10.60
2017-07-28T00:37:20.468Z,11.10
2017-07-28T00:37:24.714Z,11.93
2017-07-28T00:37:28.959Z,12.35
2017-07-28T00:37:33.222Z,12.70
2017-07-28T00:37:37.502Z,12.80
2017-07-28T00:37:41.779Z,11.85
2017-07-28T00:37:46.814Z,11.50
2017-07-28T00:37:51.535Z,12.40
2017-07-28T00:37:55.868Z,12.95
2017-07-28T00:38:00.124Z,13.50
2017-07-28T00:38:05.136Z,13.55
2017-07-28T00:38:10.185Z,13.73
2017-07-28T00:38:14.417Z,14.40
2017-07-28T00:38:18.667Z,13.75
2017-07-28T00:38:23.665Z,13.13
2017-07-28T00:38:27.907Z,13.10
2017-07-28T00:38:32.141Z,13.05
2017-07-28T00:38:36.365Z,12.85
2017-07-28T00:38:40.634Z,13.55
2017-07-28T00:38:44.855Z,13.47
2017-07-28T00:38:49.109Z,13.10
2017-07-28T00:38:53.337Z,12.60
2017-07-28T00:38:57.586Z,12.35
2017-07-28T00:39:01.859Z,11.97
2017-07-28T00:39:06.088Z,11.95
2017-07-28T00:39:10.357Z,11.85
2017-07-28T00:39:14.589Z,12.40
2017-07-28T00:39:18.838Z,12.13
2017-07-28T00:39:23.084Z,12.15
2017-07-28T00:39:27.317Z,12.40
2017-07-28T00:39:31.582Z,12.35
2017-07-28T00:39:36.581Z,12.40
2017-07-28T00:39:41.595Z,12.63
2017-07-28T00:39:45.867Z,13.20
2017-07-28T00:39:50.099Z,13.25
2017-07-28T00:39:54.347Z,13.75
2017-07-28T00:39:58.596Z,13.93
2017-07-28T00:40:02.853Z,14.50
2017-07-28T00:40:07.101Z,15.00
2017-07-28T00:40:12.116Z,15.00
2017-07-28T00:40:16.362Z,13.87
2017-07-28T00:40:20.635Z,14.20
2017-07-28T00:40:25.666Z,14.05
2017-07-28T00:40:29.904Z,14.50
2017-07-28T00:40:34.149Z,14.40
2017-07-28T00:40:39.146Z,14.30
2017-07-28T00:40:43.398Z,13.43
2017-07-28T00:40:47.643Z,13.15
2017-07-28T00:40:51.886Z,12.90
2017-07-28T00:40:56.130Z,12.30
2017-07-28T00:41:00.364Z,13.00
2017-07-28T00:41:05.398Z,12.15
2017-07-28T00:41:10.394Z,11.77
2017-07-28T00:41:15.410Z,12.57
2017-07-28T00:41:20.434Z,12.27
2017-07-28T00:41:25.437Z,12.33
2017-07-28T00:41:29.682Z,12.13
2017-07-28T00:41:33.907Z,12.30
2017-07-28T00:41:38.158Z,12.20
2017-07-28T00:41:43.160Z,11.90
2017-07-28T00:41:48.161Z,11.73
2017-07-28T00:41:52.423Z,11.97
2017-07-28T00:41:56.669Z,12.45
2017-07-28T00:42:00.897Z,12.55
2017-07-28T00:42:05.156Z,12.83
2017-07-28T00:42:09.422Z,13.15
2017-07-28T00:42:13.652Z,12.90
2017-07-28T00:42:17.929Z,13.90
2017-07-28T00:42:22.171Z,13.47
2017-07-28T00:42:26.421Z,13.15
2017-07-28T00:42:30.678Z,12.80
2017-07-28T00:42:34.927Z,12.85
2017-07-28T00:42:39.178Z,13.20
2017-07-28T00:42:44.204Z,13.65
2017-07-28T00:42:49.257Z,14.43
2017-07-28T00:42:53.504Z,15.53
2017-07-28T00:42:57.808Z,15.05
2017-07-28T00:43:02.058Z,14.07
2017-07-28T00:43:06.293Z,14.20
2017-07-28T00:43:10.547Z,13.70
2017-07-28T00:43:14.811Z,12.45
2017-07-28T00:43:19.070Z,12.17
2017-07-28T00:43:23.304Z,12.10
2017-07-28T00:43:27.555Z,13.05
2017-07-28T00:43:31.839Z,13.00
2017-07-28T00:43:36.083Z,13.10
2017-07-28T00:43:40.327Z,13.25
2017-07-28T00:43:45.320Z,13.75
2017-07-28T00:43:49.575Z,12.70
2017-07-28T00:43:53.828Z,11.73
2017-07-28T00:43:58.082Z,12.20
2017-07-28T00:44:02.334Z,12.85
2017-07-28T00:44:07.333Z,12.90
2017-07-28T00:44:11.624Z,13.40
2017-07-28T00:44:15.878Z,14.07
2017-07-28T00:44:20.132Z,14.60
2017-07-28T00:44:24.386Z,14.95
2017-07-28T00:44:28.630Z,14.23
2017-07-28T00:44:32.919Z,14.35
2017-07-28T00:44:37.164Z,14.10
2017-07-28T00:44:42.178Z,13.35
2017-07-28T00:44:47.226Z,13.30
2017-07-28T00:44:51.453Z,13.50
2017-07-28T00:44:55.700Z,13.20
2017-07-28T00:45:00.723Z,12.55
2017-07-28T00:45:04.993Z,11.70
2017-07-28T00:45:09.238Z,11.40
2017-07-28T00:45:13.483Z,10.87
2017-07-28T00:45:17.798Z,9.90
2017-07-28T00:45:22.017Z,9.50
2017-07-28T00:45:27.038Z,8.95
2017-07-28T00:45:32.060Z,9.03
2017-07-28T00:45:37.105Z,9.00
2017-07-28T00:45:41.327Z,9.30
2017-07-28T00:45:45.575Z,8.95
2017-07-28T00:45:50.585Z,9.60
2017-07-28T00:45:54.829Z,9.70
2017-07-28T00:45:59.066Z,9.55
2017-07-28T00:46:03.298Z,10.23
2017-07-28T00:46:08.322Z,10.50
2017-07-28T00:46:13.325Z,10.37
2017-07-28T00:46:18.341Z,10.50
2017-07-28T00:46:23.356Z,10.80
2017-07-28T00:46:28.365Z,11.00
2017-07-28T00:46:32.597Z,10.80
2017-07-28T00:46:36.848Z,10.70
2017-07-28T00:46:41.080Z,10.45
2017-07-28T00:46:45.353Z,10.67
2017-07-28T00:46:49.569Z,10.00
2017-07-28T00:46:54.583Z,10.15
2017-07-28T00:46:58.843Z,10.53
2017-07-28T00:47:03.090Z,10.23
2017-07-28T00:47:08.112Z,10.10
2017-07-28T00:47:13.136Z,10.20
2017-07-28T00:47:17.404Z,10.90
2017-07-28T00:47:21.650Z,10.90
2017-07-28T00:47:25.878Z,11.00
2017-07-28T00:47:30.135Z,11.07
2017-07-28T00:47:35.195Z,11.45
2017-07-28T00:47:39.436Z,12.13
2017-07-28T00:47:43.664Z,12.35
2017-07-28T00:47:47.923Z,12.20
2017-07-28T00:47:52.182Z,12.10
2017-07-28T00:47:56.426Z,12.30
2017-07-28T00:48:00.653Z,12.10
2017-07-28T00:48:05.676Z,12.33
2017-07-28T00:48:10.695Z,13.10
2017-07-28T00:48:15.689Z,13.57
2017-07-28T00:48:19.987Z,13.73
2017-07-28T00:48:24.207Z,13.35
2017-07-28T00:48:29.213Z,13.50
2017-07-28T00:48:33.464Z,13.70
2017-07-28T00:48:37.704Z,13.50
2017-07-28T00:48:41.946Z,12.80
2017-07-28T00:48:46.176Z,12.80
2017-07-28T00:48:50.415Z,12.80
2017-07-28T00:48:55.421Z,12.03
2017-07-28T00:48:59.720Z,11.67
2017-07-28T00:49:03.957Z,11.50
2017-07-28T00:49:08.209Z,11.50
2017-07-28T00:49:12.471Z,10.75
2017-07-28T00:49:16.742Z,10.73
2017-07-28T00:49:21.803Z,10.90
2017-07-28T00:49:26.069Z,11.10
2017-07-28T00:49:31.052Z,10.80
2017-07-28T00:49:35.299Z,10.20
2017-07-28T00:49:39.558Z,10.50
2017-07-28T00:49:43.825Z,11.40
2017-07-28T00:49:48.078Z,11.65
2017-07-28T00:49:53.077Z,12.05
2017-07-28T00:49:57.323Z,12.43
2017-07-28T00:50:01.568Z,12.53
2017-07-28T00:50:05.822Z,12.90
2017-07-28T00:50:10.049Z,12.65
2017-07-28T00:50:14.355Z,12.45
2017-07-28T00:50:18.617Z,12.40
2017-07-28T00:50:22.866Z,11.90
2017-07-28T00:50:28.630Z,11.90
2017-07-28T00:50:34.090Z,13.00
2017-07-28T00:50:38.350Z,13.07
2017-07-28T00:50:42.600Z,12.25
2017-07-28T00:50:46.826Z,11.95
2017-07-28T00:50:51.056Z,11.80
2017-07-28T00:50:56.078Z,11.57
2017-07-28T00:51:00.327Z,11.70
2017-07-28T00:51:04.570Z,11.70
2017-07-28T00:51:08.808Z,12.05
2017-07-28T00:51:13.048Z,12.40
2017-07-28T00:51:17.312Z,12.40
2017-07-28T00:51:23.098Z,12.37
2017-07-28T00:51:27.348Z,12.70
2017-07-28T00:51:31.582Z,11.70
2017-07-28T00:51:35.814Z,11.75
2017-07-28T00:51:40.827Z,12.20
2017-07-28T00:51:45.826Z,12.20
2017-07-28T00:51:50.083Z,12.30
2017-07-28T00:51:54.331Z,12.30
2017-07-28T00:51:58.583Z,12.50
2017-07-28T00:52:02.826Z,12.25
2017-07-28T00:52:07.076Z,11.93
2017-07-28T00:52:11.338Z,12.00
2017-07-28T00:52:15.565Z,12.15
2017-07-28T00:52:19.815Z,12.75
2017-07-28T00:52:24.063Z,12.70
2017-07-28T00:52:28.331Z,12.55
2017-07-28T00:52:32.585Z,12.75
2017-07-28T00:52:36.830Z,12.73
2017-07-28T00:52:41.110Z,12.35
2017-07-28T00:52:45.331Z,15.65
2017-07-28T00:52:49.564Z,18.80
2017-07-28T00:52:53.822Z,19.90
2017-07-28T00:52:58.060Z,20.05
2017-07-28T00:53:02.306Z,20.30
2017-07-28T00:53:06.532Z,20.40
2017-07-28T00:53:10.779Z,19.57
2017-07-28T00:53:15.008Z,19.10
2017-07-28T00:53:19.253Z,19.40
2017-07-28T00:53:24.266Z,19.95
2017-07-28T00:53:29.283Z,21.40
2017-07-28T00:53:33.513Z,21.57
2017-07-28T00:53:37.766Z,21.20
2017-07-28T00:53:42.027Z,21.10
2017-07-28T00:53:46.261Z,15.95
2017-07-28T00:53:50.507Z,15.45
2017-07-28T00:53:54.759Z,14.97
2017-07-28T00:53:58.992Z,15.20
2017-07-28T00:54:03.243Z,14.80
2017-07-28T00:54:07.483Z,14.73
2017-07-28T00:54:11.878Z,14.95
2017-07-28T00:54:16.876Z,14.60
2017-07-28T00:54:21.126Z,15.10
2017-07-28T00:54:25.383Z,13.90
2017-07-28T00:54:29.638Z,12.93
2017-07-28T00:54:33.868Z,12.50
2017-07-28T00:54:38.111Z,12.70
2017-07-28T00:54:43.149Z,13.70
2017-07-28T00:54:47.414Z,14.33
2017-07-28T00:54:51.652Z,13.95
2017-07-28T00:54:55.888Z,13.90
2017-07-28T00:55:00.136Z,13.30
2017-07-28T00:55:04.403Z,13.87
2017-07-28T00:55:08.636Z,15.40
2017-07-28T00:55:12.879Z,15.30
2017-07-28T00:55:17.131Z,15.00
2017-07-28T00:55:22.121Z,13.63
2017-07-28T00:55:26.499Z,13.67
2017-07-28T00:55:30.750Z,13.65
2017-07-28T00:55:35.752Z,14.20
2017-07-28T00:55:40.762Z,13.83
2017-07-28T00:55:45.024Z,12.77
2017-07-28T00:55:49.275Z,11.90
2017-07-28T00:55:54.277Z,11.35
2017-07-28T00:55:58.508Z,11.47
2017-07-28T00:56:02.737Z,11.30
2017-07-28T00:56:06.986Z,9.80
2017-07-28T00:56:11.236Z,9.63
2017-07-28T00:56:15.481Z,9.95
2017-07-28T00:56:19.719Z,10.25
2017-07-28T00:56:23.970Z,10.30
2017-07-28T00:56:28.234Z,10.37
2017-07-28T00:56:32.498Z,10.95
2017-07-28T00:56:36.713Z,11.05
2017-07-28T00:56:40.963Z,12.13
2017-07-28T00:56:45.217Z,12.30
2017-07-28T00:56:49.447Z,12.45
2017-07-28T00:56:53.707Z,12.30
2017-07-28T00:56:58.700Z,11.97
2017-07-28T00:57:02.962Z,12.07